createdAt,value
2018-08-11T00:01:00.072Z,84.40
2018-08-11T00:03:28.737Z,84.30
2018-08-11T00:05:57.500Z,84.50
2018-08-11T00:08:26.170Z,84.30
2018-08-11T00:10:54.910Z,83.80
2018-08-11T00:13:23.608Z,82.70
2018-08-11T00:15:52.312Z,82.40
2018-08-11T00:18:20.983Z,82.80
2018-08-11T00:20:49.681Z,83.40
2018-08-11T00:23:18.347Z,84.10
2018-08-11T00:25:47.035Z,84.40
2018-08-11T00:28:15.698Z,84.20
2018-08-11T00:30:44.409Z,84.30
2018-08-11T00:33:13.036Z,84.70
2018-08-11T00:35:41.698Z,84.70
2018-08-11T00:38:10.428Z,84.80
2018-08-11T00:40:39.152Z,85.20
2018-08-11T00:43:07.976Z,85.60
2018-08-11T00:45:36.724Z,85.20
2018-08-11T00:48:05.664Z,84.70
2018-08-11T00:50:34.424Z,84.00
2018-08-11T00:53:03.251Z,84.50
2018-08-11T00:55:31.931Z,85.10
2018-08-11T00:58:00.599Z,85.60
2018-08-11T01:00:29.291Z,86.30
2018-08-11T01:02:58.132Z,86.50
2018-08-11T01:05:26.920Z,86.90
2018-08-11T01:07:55.678Z,87.10
2018-08-11T01:10:24.463Z,88.00
2018-08-11T01:12:53.255Z,86.80
2018-08-11T01:15:22.620Z,86.40
2018-08-11T01:17:52.011Z,87.10
2018-08-11T01:20:20.682Z,86.50
2018-08-11T01:22:49.879Z,87.00
2018-08-11T01:25:18.661Z,86.90
2018-08-11T01:27:47.309Z,87.00
2018-08-11T01:30:17.781Z,87.00
2018-08-11T01:32:46.522Z,86.90
2018-08-11T01:35:15.224Z,87.10
2018-08-11T01:37:44.562Z,87.20
2018-08-11T01:40:14.474Z,87.00
2018-08-11T01:42:44.281Z,87.10
2018-08-11T01:45:13.693Z,87.00
2018-08-11T01:47:42.715Z,87.20
2018-08-11T01:50:12.699Z,86.80
2018-08-11T01:52:43.552Z,87.00
2018-08-11T01:55:14.107Z,87.20
2018-08-11T01:57:42.935Z,87.30
2018-08-11T02:00:13.188Z,87.50
2018-08-11T02:02:41.968Z,87.70
2018-08-11T02:05:11.904Z,87.70
2018-08-11T02:07:41.898Z,87.50
2018-08-11T02:10:14.221Z,87.50
2018-08-11T02:12:42.982Z,88.10
2018-08-11T02:15:12.665Z,88.80
2018-08-11T02:17:41.472Z,87.70
2018-08-11T02:20:12.904Z,87.80
2018-08-11T02:22:42.519Z,88.00
2018-08-11T02:25:11.318Z,87.80
2018-08-11T02:27:40.563Z,87.80
2018-08-11T02:30:11.921Z,88.10
2018-08-11T02:32:40.836Z,88.20
2018-08-11T02:35:10.760Z,88.10
2018-08-11T02:37:39.768Z,88.10
2018-08-11T02:40:10.064Z,88.20
2018-08-11T02:42:38.724Z,88.40
2018-08-11T02:45:08.819Z,88.40
2018-08-11T02:47:37.481Z,88.20
2018-08-11T02:50:07.573Z,88.30
2018-08-11T02:52:36.216Z,88.20
2018-08-11T02:55:05.276Z,87.80
2018-08-11T02:57:34.003Z,87.80
2018-08-11T03:00:02.824Z,87.50
2018-08-11T03:02:31.621Z,87.20
2018-08-11T03:05:00.215Z,87.40
2018-08-11T03:07:28.844Z,87.20
2018-08-11T03:09:57.528Z,86.80
2018-08-11T03:12:26.169Z,86.60
2018-08-11T03:14:54.909Z,86.80
2018-08-11T03:17:23.581Z,87.30
2018-08-11T03:19:52.322Z,88.00
2018-08-11T03:22:20.984Z,88.10
2018-08-11T03:24:49.737Z,88.20
2018-08-11T03:27:18.360Z,88.00
2018-08-11T03:29:47.027Z,87.70
2018-08-11T03:32:15.637Z,87.90
2018-08-11T03:34:44.268Z,87.20
2018-08-11T03:37:12.891Z,87.30
2018-08-11T03:39:41.523Z,87.10
2018-08-11T03:42:10.161Z,87.10
2018-08-11T03:44:38.800Z,87.40
2018-08-11T03:47:07.440Z,87.70
2018-08-11T03:49:36.091Z,88.10
2018-08-11T03:52:04.730Z,88.10
2018-08-11T03:54:33.380Z,88.10
2018-08-11T03:57:02.015Z,88.00
2018-08-11T03:59:30.668Z,88.20
2018-08-11T04:01:59.300Z,88.50
2018-08-11T04:04:27.911Z,88.80
2018-08-11T04:06:56.632Z,88.70
2018-08-11T04:09:25.256Z,88.80
2018-08-11T04:11:53.896Z,89.00
2018-08-11T04:14:22.544Z,89.90
2018-08-11T04:16:51.177Z,88.80
2018-08-11T04:19:19.808Z,89.20
2018-08-11T04:21:48.477Z,89.10
2018-08-11T04:24:17.102Z,89.10
2018-08-11T04:26:45.759Z,87.40
2018-08-11T04:29:14.401Z,86.80
2018-08-11T04:31:43.043Z,86.60
2018-08-11T04:34:11.697Z,86.50
2018-08-11T04:36:40.316Z,86.40
2018-08-11T04:39:09.532Z,86.40
2018-08-11T04:41:38.531Z,87.20
2018-08-11T04:44:07.228Z,86.90
2018-08-11T04:46:35.999Z,87.10
2018-08-11T04:49:04.620Z,88.00
2018-08-11T04:51:33.271Z,87.50
2018-08-11T04:54:01.908Z,87.90
2018-08-11T04:56:30.557Z,87.50
2018-08-11T04:58:59.203Z,87.00
2018-08-11T05:01:27.823Z,87.40
2018-08-11T05:03:56.445Z,87.30
2018-08-11T05:06:25.075Z,87.90
2018-08-11T05:08:53.695Z,88.30
2018-08-11T05:11:22.382Z,88.10
2018-08-11T05:13:51.020Z,88.20
2018-08-11T05:16:19.656Z,88.80
2018-08-11T05:18:48.300Z,89.00
2018-08-11T05:21:16.923Z,89.40
2018-08-11T05:23:45.556Z,89.50
2018-08-11T05:26:14.222Z,89.50
2018-08-11T05:28:42.851Z,89.50
2018-08-11T05:31:11.476Z,89.20
2018-08-11T05:33:40.108Z,89.60
2018-08-11T05:36:08.772Z,89.70
2018-08-11T05:38:37.444Z,90.10
2018-08-11T05:41:06.116Z,90.30
2018-08-11T05:43:34.784Z,90.30
2018-08-11T05:46:03.540Z,90.40
2018-08-11T05:48:32.184Z,90.50
2018-08-11T05:51:00.800Z,90.80
2018-08-11T05:53:29.479Z,90.90
2018-08-11T05:55:58.100Z,90.20
2018-08-11T05:58:26.719Z,89.60
2018-08-11T06:00:55.352Z,89.20
2018-08-11T06:03:23.983Z,88.60
2018-08-11T06:05:52.620Z,87.70
2018-08-11T06:08:21.283Z,88.10
2018-08-11T06:10:49.939Z,87.50
2018-08-11T06:13:18.597Z,86.90
2018-08-11T06:15:47.216Z,86.00
2018-08-11T06:18:15.931Z,84.40
2018-08-11T06:20:44.572Z,83.10
2018-08-11T06:23:13.192Z,82.50
2018-08-11T06:25:41.822Z,81.50
2018-08-11T06:28:10.462Z,79.50
2018-08-11T06:30:39.072Z,77.50
2018-08-11T06:33:07.730Z,74.90
2018-08-11T06:35:36.489Z,72.60
2018-08-11T06:38:05.160Z,70.40
2018-08-11T06:40:33.795Z,66.80
2018-08-11T06:43:02.513Z,63.90
2018-08-11T06:45:31.134Z,61.30
2018-08-11T06:47:59.908Z,59.00
2018-08-11T06:50:28.544Z,57.30
2018-08-11T06:52:57.192Z,56.20
2018-08-11T06:55:25.877Z,55.70
2018-08-11T06:57:54.516Z,55.20
2018-08-11T07:00:23.185Z,54.40
2018-08-11T07:02:51.813Z,53.30
2018-08-11T07:05:20.486Z,52.40
2018-08-11T07:07:49.111Z,51.80
2018-08-11T07:10:17.740Z,50.90
2018-08-11T07:12:46.376Z,51.20
2018-08-11T07:15:15.048Z,50.40
2018-08-11T07:17:43.748Z,49.80
2018-08-11T07:20:12.408Z,49.00
2018-08-11T07:22:41.098Z,47.90
2018-08-11T07:25:09.836Z,47.70
2018-08-11T07:27:38.512Z,46.40
2018-08-11T07:30:07.204Z,45.60
2018-08-11T07:32:35.839Z,45.30
2018-08-11T07:35:04.530Z,44.90
2018-08-11T07:37:33.176Z,44.80
2018-08-11T07:40:01.893Z,44.10
2018-08-11T07:42:30.592Z,43.50
2018-08-11T07:44:59.221Z,42.70
2018-08-11T07:47:27.904Z,42.40
2018-08-11T07:49:56.560Z,42.80
2018-08-11T07:52:25.189Z,42.20
2018-08-11T07:54:53.807Z,41.10
2018-08-11T07:57:22.448Z,41.00
2018-08-11T07:59:51.084Z,40.20
2018-08-11T08:02:19.708Z,41.10
2018-08-11T08:04:48.336Z,42.20
2018-08-11T08:07:16.959Z,41.00
2018-08-11T08:09:45.597Z,40.50
2018-08-11T08:12:14.228Z,41.00
2018-08-11T08:14:42.872Z,41.00
2018-08-11T08:17:11.539Z,40.70
2018-08-11T08:19:40.199Z,41.70
2018-08-11T08:22:08.912Z,43.20
2018-08-11T08:24:37.550Z,41.60
2018-08-11T08:27:06.233Z,41.50
2018-08-11T08:29:34.895Z,41.80
2018-08-11T08:32:03.697Z,41.50
2018-08-11T08:34:32.320Z,42.40
2018-08-11T08:37:00.949Z,41.80
2018-08-11T08:39:29.644Z,41.70
2018-08-11T08:41:58.383Z,41.50
2018-08-11T08:44:26.984Z,42.00
2018-08-11T08:46:55.591Z,42.30
2018-08-11T08:49:24.226Z,43.10
2018-08-11T08:51:52.973Z,42.00
2018-08-11T08:54:21.592Z,42.40
2018-08-11T08:56:50.238Z,42.00
2018-08-11T08:59:18.868Z,41.50
2018-08-11T09:01:47.472Z,41.40
2018-08-11T09:04:16.084Z,41.70
2018-08-11T09:06:44.735Z,41.50
2018-08-11T09:09:13.377Z,41.50
2018-08-11T09:11:42.716Z,41.30
2018-08-11T09:14:11.356Z,41.00
2018-08-11T09:16:40.025Z,40.60
2018-08-11T09:19:08.644Z,40.70
2018-08-11T09:21:37.271Z,40.10
2018-08-11T09:24:05.940Z,39.30
2018-08-11T09:26:34.555Z,39.80
2018-08-11T09:29:03.219Z,40.20
2018-08-11T09:31:31.888Z,39.50
2018-08-11T09:34:00.520Z,39.40
2018-08-11T09:36:29.163Z,39.70
2018-08-11T09:38:57.783Z,38.50
2018-08-11T09:41:26.444Z,38.50
2018-08-11T09:43:55.049Z,38.40
2018-08-11T09:46:23.739Z,38.20
2018-08-11T09:48:52.400Z,37.60
2018-08-11T09:51:21.067Z,37.10
2018-08-11T09:53:49.700Z,37.80
2018-08-11T09:56:18.336Z,38.20
2018-08-11T09:58:47.037Z,37.70
2018-08-11T10:01:21.118Z,37.60
2018-08-11T10:03:49.824Z,36.70
2018-08-11T10:06:18.502Z,36.80
2018-08-11T10:08:47.179Z,36.10
2018-08-11T10:11:15.861Z,36.70
2018-08-11T10:13:44.489Z,36.10
2018-08-11T10:16:13.160Z,35.80
2018-08-11T10:18:41.780Z,35.40
2018-08-11T10:21:10.479Z,35.00
2018-08-11T10:23:39.088Z,34.90
2018-08-11T10:26:07.988Z,35.40
2018-08-11T10:28:36.611Z,34.50
2018-08-11T10:31:05.296Z,33.90
2018-08-11T10:33:33.915Z,34.10
2018-08-11T10:36:02.577Z,33.50
2018-08-11T10:38:31.428Z,33.60
2018-08-11T10:41:00.061Z,33.90
2018-08-11T10:43:28.703Z,33.50
2018-08-11T10:45:57.333Z,32.80
2018-08-11T10:48:25.955Z,32.10
2018-08-11T10:50:54.612Z,32.50
2018-08-11T10:53:23.232Z,32.80
2018-08-11T10:55:51.946Z,32.40
2018-08-11T10:58:20.551Z,32.20
2018-08-11T11:00:49.196Z,32.30
2018-08-11T11:03:17.817Z,32.60
2018-08-11T11:05:46.443Z,32.20
2018-08-11T11:08:15.097Z,32.60
2018-08-11T11:10:43.713Z,31.10
2018-08-11T11:13:12.383Z,32.40
2018-08-11T11:15:41.024Z,32.50
2018-08-11T11:18:09.647Z,32.00
2018-08-11T11:20:38.281Z,31.90
2018-08-11T11:23:06.891Z,31.40
2018-08-11T11:25:35.544Z,31.10
2018-08-11T11:28:04.165Z,31.50
2018-08-11T11:30:32.848Z,31.40
2018-08-11T11:33:01.496Z,32.20
2018-08-11T11:35:30.124Z,31.10
2018-08-11T11:37:58.787Z,31.20
2018-08-11T11:40:27.536Z,31.20
2018-08-11T11:42:56.179Z,30.70
2018-08-11T11:45:24.797Z,31.50
2018-08-11T11:47:53.803Z,31.50
2018-08-11T11:50:22.535Z,31.70
2018-08-11T11:52:51.151Z,30.30
2018-08-11T11:55:19.828Z,30.90
2018-08-11T11:57:48.574Z,30.40
2018-08-11T12:00:17.240Z,30.90
2018-08-11T12:02:45.940Z,31.60
2018-08-11T12:05:14.590Z,30.90
2018-08-11T12:07:43.288Z,31.60
2018-08-11T12:10:11.936Z,32.50
2018-08-11T12:12:40.608Z,31.60
2018-08-11T12:15:09.272Z,31.50
2018-08-11T12:17:37.906Z,31.90
2018-08-11T12:20:06.640Z,31.60
2018-08-11T12:22:35.284Z,32.10
2018-08-11T12:25:04.101Z,32.30
2018-08-11T12:27:32.784Z,32.10
2018-08-11T12:30:01.476Z,32.40
2018-08-11T12:32:30.094Z,31.90
2018-08-11T12:34:58.720Z,32.00
2018-08-11T12:37:27.363Z,31.30
2018-08-11T12:39:55.991Z,32.10
2018-08-11T12:42:24.610Z,31.80
2018-08-11T12:44:53.227Z,31.30
2018-08-11T12:47:21.887Z,31.30
2018-08-11T12:49:50.505Z,31.50
2018-08-11T12:52:19.124Z,31.10
2018-08-11T12:54:47.752Z,31.10
2018-08-11T12:57:16.407Z,32.00
2018-08-11T12:59:45.060Z,32.90
2018-08-11T13:02:13.811Z,31.90
2018-08-11T13:04:42.943Z,31.70
2018-08-11T13:07:11.583Z,31.50
2018-08-11T13:09:40.255Z,32.10
2018-08-11T13:12:08.900Z,31.90
2018-08-11T13:14:37.533Z,32.00
2018-08-11T13:17:06.302Z,32.80
2018-08-11T13:19:34.975Z,32.90
2018-08-11T13:22:03.664Z,32.90
2018-08-11T13:24:32.286Z,32.60
2018-08-11T13:27:00.912Z,32.50
2018-08-11T13:29:29.580Z,33.10
2018-08-11T13:31:58.241Z,33.70
2018-08-11T13:34:26.910Z,33.50
2018-08-11T13:36:55.532Z,34.20
2018-08-11T13:39:24.170Z,34.80
2018-08-11T13:41:52.796Z,34.20
2018-08-11T13:44:21.419Z,33.70
2018-08-11T13:46:50.043Z,33.70
2018-08-11T13:49:18.689Z,33.70
2018-08-11T13:51:47.310Z,34.10
2018-08-11T13:54:16.008Z,34.50
2018-08-11T13:56:44.703Z,35.50
2018-08-11T13:59:13.325Z,35.20
2018-08-11T14:01:42.020Z,35.70
2018-08-11T14:04:10.664Z,35.70
2018-08-11T14:06:39.272Z,34.40
2018-08-11T14:09:08.477Z,34.10
2018-08-11T14:11:37.136Z,33.60
2018-08-11T14:14:05.808Z,32.40
2018-08-11T14:16:34.459Z,32.80
2018-08-11T14:19:03.093Z,32.40
2018-08-11T14:21:31.707Z,32.80
2018-08-11T14:24:00.339Z,32.40
2018-08-11T14:26:29.000Z,32.40
2018-08-11T14:28:57.671Z,33.40
2018-08-11T14:31:26.353Z,32.70
2018-08-11T14:33:54.965Z,33.00
2018-08-11T14:36:23.660Z,33.30
2018-08-11T14:38:52.304Z,32.70
2018-08-11T14:41:20.928Z,32.70
2018-08-11T14:43:49.560Z,31.60
2018-08-11T14:46:18.192Z,31.70
2018-08-11T14:48:46.822Z,31.50
2018-08-11T14:51:15.487Z,32.40
2018-08-11T14:53:44.112Z,31.70
2018-08-11T14:56:12.792Z,32.10
2018-08-11T14:58:41.459Z,31.10
2018-08-11T15:01:10.369Z,32.20
2018-08-11T15:03:39.023Z,32.20
2018-08-11T15:06:07.667Z,33.10
2018-08-11T15:08:36.273Z,31.50
2018-08-11T15:11:04.950Z,31.50
2018-08-11T15:13:33.599Z,31.20
2018-08-11T15:16:02.302Z,31.10
2018-08-11T15:18:30.905Z,31.10
2018-08-11T15:20:59.530Z,31.40
2018-08-11T15:23:28.160Z,31.80
2018-08-11T15:25:56.819Z,31.70
2018-08-11T15:28:25.455Z,32.40
2018-08-11T15:30:54.121Z,32.10
2018-08-11T15:33:22.760Z,32.30
2018-08-11T15:35:51.416Z,31.60
2018-08-11T15:38:20.048Z,32.10
2018-08-11T15:40:48.652Z,31.50
2018-08-11T15:43:17.300Z,31.50
2018-08-11T15:45:45.930Z,32.60
2018-08-11T15:48:14.592Z,32.50
2018-08-11T15:50:43.236Z,32.30
2018-08-11T15:53:11.952Z,32.70
2018-08-11T15:55:40.689Z,32.30
2018-08-11T15:58:09.416Z,32.40
2018-08-11T16:00:38.172Z,32.40
2018-08-11T16:03:06.913Z,32.70
2018-08-11T16:05:35.689Z,32.80
2018-08-11T16:08:04.873Z,33.90
2018-08-11T16:10:33.506Z,35.00
2018-08-11T16:13:02.132Z,35.60
2018-08-11T16:15:30.769Z,35.80
2018-08-11T16:17:59.386Z,35.00
2018-08-11T16:20:28.000Z,35.90
2018-08-11T16:22:56.629Z,36.90
2018-08-11T16:25:25.243Z,36.50
2018-08-11T16:27:53.855Z,36.30
2018-08-11T16:30:22.476Z,36.20
2018-08-11T16:32:51.092Z,36.50
2018-08-11T16:35:19.732Z,36.30
2018-08-11T16:37:48.364Z,36.50
2018-08-11T16:40:17.021Z,36.30
2018-08-11T16:42:45.687Z,35.80
2018-08-11T16:45:14.389Z,35.90
2018-08-11T16:47:43.082Z,36.60
2018-08-11T16:50:11.733Z,36.50
2018-08-11T16:52:40.352Z,36.10
2018-08-11T16:55:08.995Z,37.30
2018-08-11T16:57:37.640Z,37.20
2018-08-11T17:00:08.767Z,38.00
2018-08-11T17:02:37.432Z,37.40
2018-08-11T17:05:06.264Z,36.70
2018-08-11T17:07:35.188Z,36.60
2018-08-11T17:10:04.620Z,36.00
2018-08-11T17:12:33.240Z,35.80
2018-08-11T17:15:01.877Z,36.70
2018-08-11T17:17:30.507Z,36.90
2018-08-11T17:19:59.119Z,37.00
2018-08-11T17:22:27.739Z,37.20
2018-08-11T17:24:56.404Z,37.20
2018-08-11T17:27:25.040Z,37.20
2018-08-11T17:29:53.685Z,37.30
2018-08-11T17:32:22.316Z,37.50
2018-08-11T17:34:51.973Z,37.60
2018-08-11T17:37:20.664Z,37.70
2018-08-11T17:39:49.390Z,38.20
2018-08-11T17:42:18.034Z,37.80
2018-08-11T17:44:46.684Z,37.60
2018-08-11T17:47:15.359Z,37.50
2018-08-11T17:49:44.032Z,37.80
2018-08-11T17:52:12.678Z,38.40
2018-08-11T17:54:41.336Z,39.00
2018-08-11T17:57:09.967Z,39.70
2018-08-11T17:59:38.655Z,40.00
2018-08-11T18:02:07.316Z,41.30
2018-08-11T18:04:35.955Z,41.10
2018-08-11T18:07:05.047Z,41.60
2018-08-11T18:09:33.646Z,42.00
2018-08-11T18:12:02.303Z,42.40
2018-08-11T18:14:30.935Z,42.80
2018-08-11T18:16:59.612Z,42.90
2018-08-11T18:19:28.260Z,43.20
2018-08-11T18:21:56.880Z,43.20
2018-08-11T18:24:25.519Z,43.40
2018-08-11T18:26:54.160Z,44.30
2018-08-11T18:29:22.792Z,46.10
2018-08-11T18:31:51.416Z,47.10
2018-08-11T18:34:20.057Z,46.90
2018-08-11T18:36:48.673Z,47.10
2018-08-11T18:39:17.317Z,46.50
2018-08-11T18:41:45.978Z,45.70
2018-08-11T18:44:14.602Z,46.00
2018-08-11T18:46:43.257Z,46.30
2018-08-11T18:49:11.896Z,44.90
2018-08-11T18:51:40.572Z,43.90
2018-08-11T18:54:09.229Z,45.40
2018-08-11T18:56:37.921Z,47.50
2018-08-11T18:59:06.599Z,47.50
2018-08-11T19:01:35.241Z,47.80
2018-08-11T19:04:04.017Z,48.00
2018-08-11T19:06:32.721Z,48.60
2018-08-11T19:09:01.513Z,49.40
2018-08-11T19:11:30.253Z,48.70
2018-08-11T19:13:58.972Z,48.20
2018-08-11T19:16:27.680Z,47.70
2018-08-11T19:18:56.370Z,48.10
2018-08-11T19:21:25.083Z,48.10
2018-08-11T19:23:53.852Z,49.60
2018-08-11T19:26:22.559Z,51.30
2018-08-11T19:28:51.210Z,52.70
2018-08-11T19:31:19.849Z,53.70
2018-08-11T19:33:48.468Z,54.40
2018-08-11T19:36:17.104Z,54.60
2018-08-11T19:38:45.756Z,55.50
2018-08-11T19:41:14.494Z,55.10
2018-08-11T19:43:43.174Z,55.30
2018-08-11T19:46:11.873Z,55.10
2018-08-11T19:48:40.565Z,55.80
2018-08-11T19:51:09.235Z,56.90
2018-08-11T19:53:37.906Z,57.70
2018-08-11T19:56:06.611Z,58.30
2018-08-11T19:58:35.259Z,58.80
2018-08-11T20:01:03.925Z,59.60
2018-08-11T20:03:32.576Z,60.00
2018-08-11T20:06:01.200Z,60.40
2018-08-11T20:08:29.899Z,60.20
2018-08-11T20:10:58.540Z,61.70
2018-08-11T20:13:27.279Z,62.60
2018-08-11T20:15:55.956Z,62.70
2018-08-11T20:18:24.708Z,62.90
2018-08-11T20:20:53.371Z,63.20
2018-08-11T20:23:22.078Z,63.10
2018-08-11T20:25:50.724Z,62.90
2018-08-11T20:28:19.558Z,63.30
2018-08-11T20:30:48.199Z,64.30
2018-08-11T20:33:16.860Z,64.20
2018-08-11T20:35:45.515Z,64.90
2018-08-11T20:38:14.207Z,64.60
2018-08-11T20:40:42.918Z,65.90
2018-08-11T20:43:11.561Z,65.90
2018-08-11T20:45:40.248Z,66.30
2018-08-11T20:48:09.074Z,66.50
2018-08-11T20:50:37.773Z,66.30
2018-08-11T20:53:06.492Z,66.80
2018-08-11T20:55:35.137Z,67.10
2018-08-11T20:58:03.932Z,67.10
2018-08-11T21:00:32.722Z,67.00
2018-08-11T21:03:01.357Z,68.20
2018-08-11T21:05:30.085Z,68.20
2018-08-11T21:07:58.827Z,68.00
2018-08-11T21:10:27.547Z,68.00
2018-08-11T21:12:56.190Z,69.20
2018-08-11T21:15:25.098Z,68.60
2018-08-11T21:17:53.790Z,68.50
2018-08-11T21:20:22.478Z,69.10
2018-08-11T21:22:51.144Z,69.40
2018-08-11T21:25:19.820Z,69.30
2018-08-11T21:27:48.463Z,70.00
2018-08-11T21:30:17.227Z,70.40
2018-08-11T21:32:45.835Z,69.70
2018-08-11T21:35:14.559Z,70.20
2018-08-11T21:37:43.248Z,69.50
2018-08-11T21:40:13.885Z,69.70
2018-08-11T21:42:42.973Z,70.60
2018-08-11T21:45:11.753Z,70.90
2018-08-11T21:47:41.276Z,71.10
2018-08-11T21:50:10.367Z,71.00
2018-08-11T21:52:39.668Z,71.00
2018-08-11T21:55:08.859Z,71.00
2018-08-11T21:57:38.055Z,71.00
2018-08-11T22:00:21.638Z,71.40
2018-08-11T22:02:50.730Z,71.10
2018-08-11T22:05:19.398Z,71.70
2018-08-11T22:07:48.028Z,72.00
2018-08-11T22:10:16.805Z,72.60
2018-08-11T22:12:45.547Z,72.70
2018-08-11T22:15:17.007Z,73.10
2018-08-11T22:17:46.110Z,73.20
2018-08-11T22:20:14.883Z,73.20
2018-08-11T22:22:44.175Z,73.10
2018-08-11T22:25:13.369Z,73.10
2018-08-11T22:27:42.699Z,73.10
2018-08-11T22:30:11.604Z,72.60
2018-08-11T22:32:40.305Z,72.30
2018-08-11T22:35:10.725Z,72.10
2018-08-11T22:37:39.395Z,72.50
2018-08-11T22:40:08.812Z,72.80
2018-08-11T22:42:38.332Z,72.70
2018-08-11T22:45:08.596Z,72.50
2018-08-11T22:47:37.509Z,72.30
2018-08-11T22:50:08.996Z,72.20
2018-08-11T22:52:38.153Z,71.00
2018-08-11T22:55:06.919Z,70.20
2018-08-11T22:57:35.910Z,70.70
2018-08-11T23:00:08.740Z,71.10
2018-08-11T23:02:38.029Z,71.50
2018-08-11T23:05:06.851Z,71.70
2018-08-11T23:07:35.547Z,71.90
2018-08-11T23:10:05.527Z,72.10
2018-08-11T23:12:34.223Z,72.40
2018-08-11T23:15:03.048Z,72.40
2018-08-11T23:17:31.698Z,71.50
2018-08-11T23:20:00.356Z,71.60
2018-08-11T23:22:29.040Z,71.90
2018-08-11T23:24:57.744Z,71.80
2018-08-11T23:27:26.369Z,72.40
2018-08-11T23:29:55.012Z,72.90
2018-08-11T23:32:23.812Z,73.40
2018-08-11T23:34:52.487Z,73.80
2018-08-11T23:37:21.234Z,74.20
2018-08-11T23:39:49.885Z,74.10
2018-08-11T23:42:18.571Z,74.20
2018-08-11T23:44:47.225Z,74.40
2018-08-11T23:47:15.947Z,74.60
2018-08-11T23:49:44.608Z,75.00
2018-08-11T23:52:13.259Z,75.50
2018-08-11T23:54:41.933Z,75.60
2018-08-11T23:57:10.641Z,76.20
2018-08-11T23:59:39.332Z,75.90
